createdAt,value
2022-10-15T00:00:31.572Z,6.00
2022-10-15T00:03:00.137Z,9.50
2022-10-15T00:05:28.464Z,10.00
2022-10-15T00:07:56.709Z,9.50
2022-10-15T00:10:24.873Z,8.50
2022-10-15T00:12:53.453Z,6.00
2022-10-15T00:15:23.115Z,9.50
2022-10-15T00:17:51.423Z,9.00
2022-10-15T00:20:19.756Z,7.50
2022-10-15T00:22:47.988Z,12.00
2022-10-15T00:25:16.223Z,0.00
2022-10-15T00:27:44.810Z,11.50
2022-10-15T00:30:14.040Z,11.00
2022-10-15T00:32:43.656Z,10.00
2022-10-15T00:35:11.817Z,9.00
2022-10-15T00:37:40.360Z,9.00
2022-10-15T00:40:09.857Z,9.00
2022-10-15T00:42:38.069Z,9.00
2022-10-15T00:45:06.877Z,9.40
2022-10-15T00:47:38.383Z,6.50
2022-10-15T00:50:09.220Z,10.00
2022-10-15T00:52:44.024Z,9.00
2022-10-15T00:55:14.785Z,9.00
2022-10-15T00:57:43.250Z,8.00
2022-10-15T01:00:13.015Z,9.50
2022-10-15T01:02:41.247Z,6.75
2022-10-15T01:05:11.319Z,9.25
2022-10-15T01:07:39.537Z,7.50
2022-10-15T01:10:08.709Z,8.00
2022-10-15T01:12:45.297Z,8.50
2022-10-15T01:15:16.967Z,11.00
2022-10-15T01:17:47.243Z,6.00
2022-10-15T01:20:49.360Z,6.00
2022-10-15T01:23:54.177Z,8.50
2022-10-15T01:26:43.406Z,4.00
2022-10-15T01:29:17.246Z,6.00
2022-10-15T01:31:49.546Z,7.00
2022-10-15T01:36:51.380Z,6.75
2022-10-15T01:39:23.043Z,9.50
2022-10-15T01:41:52.885Z,4.00
2022-10-15T01:44:22.100Z,9.00
2022-10-15T01:46:54.072Z,4.00
2022-10-15T01:49:24.765Z,10.00
2022-10-15T01:51:54.268Z,9.50
2022-10-15T01:54:22.420Z,7.00
2022-10-15T01:56:50.883Z,7.50
2022-10-15T01:59:19.801Z,7.00
2022-10-15T02:01:48.080Z,7.50
2022-10-15T02:04:24.281Z,9.75
2022-10-15T02:06:55.593Z,9.00
2022-10-15T02:09:28.602Z,7.50
2022-10-15T02:12:02.687Z,9.25
2022-10-15T02:14:32.727Z,7.50
2022-10-15T02:17:04.661Z,9.50
2022-10-15T02:19:38.095Z,11.00
2022-10-15T02:22:08.627Z,10.00
2022-10-15T02:24:37.912Z,7.00
2022-10-15T02:27:06.236Z,3.75
2022-10-15T02:29:35.069Z,12.00
2022-10-15T02:32:03.445Z,9.00
2022-10-15T02:34:31.858Z,9.75
2022-10-15T02:37:03.220Z,11.60
2022-10-15T02:39:31.734Z,9.00
2022-10-15T02:41:59.991Z,11.50
2022-10-15T02:44:28.539Z,10.00
2022-10-15T02:46:56.795Z,13.40
2022-10-15T02:49:25.112Z,9.00
2022-10-15T02:51:53.824Z,10.40
2022-10-15T02:54:23.510Z,12.20
2022-10-15T02:56:51.744Z,15.00
2022-10-15T02:59:20.452Z,11.20
2022-10-15T03:01:48.643Z,12.60
2022-10-15T03:04:16.847Z,12.00
2022-10-15T03:06:45.355Z,15.00
2022-10-15T03:09:13.809Z,12.60
2022-10-15T03:11:43.498Z,13.60
2022-10-15T03:14:12.696Z,14.20
2022-10-15T03:16:40.998Z,13.40
2022-10-15T03:19:09.275Z,10.00
2022-10-15T03:21:37.459Z,12.40
2022-10-15T03:24:05.957Z,13.00
2022-10-15T03:26:34.291Z,13.00
2022-10-15T03:29:04.224Z,15.60
2022-10-15T03:31:33.780Z,9.00
2022-10-15T03:34:01.959Z,14.60
2022-10-15T03:36:30.106Z,10.40
2022-10-15T03:38:59.643Z,13.80
2022-10-15T03:41:27.827Z,12.40
2022-10-15T03:43:56.132Z,15.60
2022-10-15T03:46:25.761Z,13.00
2022-10-15T03:48:54.027Z,12.80
2022-10-15T03:51:24.635Z,15.80
2022-10-15T03:53:55.134Z,15.20
2022-10-15T03:56:23.326Z,12.20
2022-10-15T03:58:51.559Z,13.80
2022-10-15T04:01:20.168Z,11.80
2022-10-15T04:03:52.851Z,12.00
2022-10-15T04:06:21.061Z,12.00
2022-10-15T04:08:49.408Z,16.00
2022-10-15T04:11:17.666Z,14.60
2022-10-15T04:13:49.943Z,9.60
2022-10-15T04:16:18.232Z,9.40
2022-10-15T04:18:46.439Z,16.80
2022-10-15T04:21:16.094Z,8.20
2022-10-15T04:23:44.264Z,15.60
2022-10-15T04:26:12.530Z,13.00
2022-10-15T04:28:40.905Z,13.40
2022-10-15T04:31:09.175Z,16.00
2022-10-15T04:33:37.397Z,15.20
2022-10-15T04:36:07.174Z,15.00
2022-10-15T04:38:36.922Z,16.80
2022-10-15T04:41:06.731Z,12.80
2022-10-15T04:43:35.077Z,7.00
2022-10-15T04:46:04.256Z,16.00
2022-10-15T04:48:33.398Z,13.40
2022-10-15T04:51:05.359Z,13.80
2022-10-15T04:53:33.646Z,11.80
2022-10-15T04:56:04.105Z,16.00
2022-10-15T04:58:32.839Z,15.00
2022-10-15T05:01:02.499Z,14.60
2022-10-15T05:03:30.951Z,7.00
2022-10-15T05:06:02.022Z,9.40
2022-10-15T05:08:30.375Z,15.00
2022-10-15T05:11:03.317Z,9.80
2022-10-15T05:13:31.641Z,17.60
2022-10-15T05:16:03.957Z,15.00
2022-10-15T05:18:32.183Z,15.80
2022-10-15T05:21:02.750Z,13.40
2022-10-15T05:23:30.987Z,10.80
2022-10-15T05:26:01.132Z,16.80
2022-10-15T05:28:30.806Z,10.40
2022-10-15T05:31:04.753Z,10.00
2022-10-15T05:33:33.007Z,10.40
2022-10-15T05:36:10.231Z,12.00
2022-10-15T05:38:38.971Z,14.60
2022-10-15T05:41:07.251Z,13.40
2022-10-15T05:43:40.328Z,15.00
2022-10-15T05:46:09.854Z,10.00
2022-10-15T05:48:38.036Z,15.00
2022-10-15T05:51:07.031Z,17.80
2022-10-15T05:53:35.291Z,14.60
2022-10-15T05:56:03.507Z,16.40
2022-10-15T05:58:34.837Z,6.60
2022-10-15T06:01:07.833Z,13.80
2022-10-15T06:03:36.519Z,15.40
2022-10-15T06:06:06.730Z,15.60
2022-10-15T06:08:35.456Z,16.00
2022-10-15T06:11:06.965Z,10.80
2022-10-15T06:13:39.846Z,8.80
2022-10-15T06:16:09.812Z,18.00
2022-10-15T06:18:38.730Z,14.00
2022-10-15T06:21:07.784Z,13.60
2022-10-15T06:23:36.053Z,16.80
2022-10-15T06:26:04.714Z,14.60
2022-10-15T06:28:33.062Z,15.80
2022-10-15T06:31:01.349Z,9.40
2022-10-15T06:33:31.067Z,16.80
2022-10-15T06:36:02.478Z,16.40
2022-10-15T06:38:30.701Z,8.20
2022-10-15T06:40:58.929Z,7.60
2022-10-15T06:43:31.009Z,18.40
2022-10-15T06:46:01.472Z,16.00
2022-10-15T06:48:31.129Z,12.80
2022-10-15T06:50:59.702Z,10.60
2022-10-15T06:53:28.157Z,11.20
2022-10-15T06:55:58.625Z,14.20
2022-10-15T06:58:26.913Z,16.00
2022-10-15T07:01:00.059Z,18.20
2022-10-15T07:03:28.911Z,9.40
2022-10-15T07:06:00.682Z,17.00
2022-10-15T07:08:28.895Z,15.20
2022-10-15T07:10:57.169Z,15.40
2022-10-15T07:13:25.454Z,15.00
2022-10-15T07:15:56.060Z,17.60
2022-10-15T07:18:24.440Z,9.00
2022-10-15T07:20:52.616Z,15.00
2022-10-15T07:23:25.520Z,15.00
2022-10-15T07:25:56.253Z,13.00
2022-10-15T07:28:24.668Z,12.80
2022-10-15T07:30:53.557Z,7.80
2022-10-15T07:33:21.851Z,15.00
2022-10-15T07:35:50.063Z,12.00
2022-10-15T07:38:18.473Z,15.40
2022-10-15T07:40:48.097Z,18.80
2022-10-15T07:43:17.245Z,7.00
2022-10-15T07:45:49.475Z,18.00
2022-10-15T07:48:17.786Z,15.00
2022-10-15T07:50:46.049Z,15.40
2022-10-15T07:53:15.368Z,14.60
2022-10-15T07:55:45.534Z,15.00
2022-10-15T07:58:15.484Z,15.60
2022-10-15T08:00:43.736Z,10.00
2022-10-15T08:03:12.015Z,13.00
2022-10-15T08:05:40.236Z,12.40
2022-10-15T08:08:08.781Z,11.20
2022-10-15T08:10:37.375Z,12.20
2022-10-15T08:13:05.613Z,15.00
2022-10-15T08:15:35.251Z,13.40
2022-10-15T08:18:03.824Z,11.60
2022-10-15T08:20:32.045Z,7.00
2022-10-15T08:23:00.305Z,12.00
2022-10-15T08:25:28.559Z,9.60
2022-10-15T08:27:57.667Z,10.75
2022-10-15T08:30:25.959Z,10.00
2022-10-15T08:32:55.641Z,11.50
2022-10-15T08:35:23.807Z,10.50
2022-10-15T08:37:55.263Z,10.00
2022-10-15T08:40:23.528Z,9.75
2022-10-15T08:42:52.480Z,9.75
2022-10-15T08:45:23.672Z,12.00
2022-10-15T08:47:52.909Z,10.00
2022-10-15T08:50:29.048Z,9.50
2022-10-15T08:52:57.543Z,10.00
2022-10-15T08:55:25.796Z,10.00
2022-10-15T08:57:55.611Z,11.50
2022-10-15T09:00:28.043Z,8.00
2022-10-15T09:03:03.017Z,7.50
2022-10-15T09:05:37.895Z,9.50
2022-10-15T09:08:12.663Z,7.00
2022-10-15T09:11:13.085Z,4.00
2022-10-15T09:14:17.989Z,3.25
2022-10-15T09:16:49.761Z,7.00
2022-10-15T09:19:19.015Z,0.50
2022-10-15T09:21:49.272Z,5.50
2022-10-15T09:24:20.764Z,5.75
2022-10-15T09:27:02.547Z,3.00
2022-10-15T09:29:33.835Z,1.50
2022-10-15T09:32:10.323Z,0.50
2022-10-15T09:34:41.281Z,4.00
2022-10-15T09:37:15.374Z,4.00
2022-10-15T09:40:14.607Z,4.00
2022-10-15T09:42:42.927Z,5.00
2022-10-15T09:45:14.309Z,1.00
2022-10-15T09:47:54.091Z,3.00
2022-10-15T09:50:25.432Z,3.00
2022-10-15T09:53:04.806Z,5.00
2022-10-15T09:55:36.973Z,3.75
2022-10-15T09:58:09.969Z,4.00
2022-10-15T10:00:55.207Z,3.25
2022-10-15T10:03:25.824Z,2.50
2022-10-15T10:06:05.510Z,3.00
2022-10-15T10:08:36.740Z,3.25
2022-10-15T10:11:06.169Z,3.00
2022-10-15T10:13:36.109Z,2.00
2022-10-15T10:16:05.303Z,2.00
2022-10-15T10:18:35.005Z,3.00
2022-10-15T10:21:03.773Z,1.00
2022-10-15T10:23:34.748Z,1.50
2022-10-15T10:26:06.133Z,1.00
2022-10-15T10:28:39.363Z,2.50
2022-10-15T10:31:11.633Z,3.00
2022-10-15T10:33:52.375Z,3.00
2022-10-15T10:36:21.797Z,3.00
2022-10-15T10:38:57.114Z,1.00
2022-10-15T10:41:26.800Z,1.00
2022-10-15T10:43:55.995Z,1.00
2022-10-15T10:46:24.923Z,1.00
2022-10-15T10:48:53.788Z,1.00
2022-10-15T10:51:26.545Z,1.00
2022-10-15T10:53:56.949Z,3.00
2022-10-15T10:56:29.689Z,3.00
2022-10-15T10:59:00.527Z,2.00
2022-10-15T11:01:29.172Z,1.00
2022-10-15T11:03:57.593Z,1.50
2022-10-15T11:06:41.456Z,2.50
2022-10-15T11:09:17.227Z,2.50
2022-10-15T11:11:52.127Z,3.00
2022-10-15T11:14:24.367Z,1.00
2022-10-15T11:16:55.297Z,3.00
2022-10-15T11:19:54.671Z,3.00
2022-10-15T11:22:28.248Z,2.50
2022-10-15T11:25:07.563Z,2.00
2022-10-15T11:27:46.017Z,0.00
2022-10-15T11:30:21.389Z,3.00
2022-10-15T11:33:06.801Z,3.00
2022-10-15T11:35:52.998Z,3.00
2022-10-15T11:38:27.053Z,1.00
2022-10-15T11:41:13.539Z,3.50
2022-10-15T11:43:52.700Z,1.00
2022-10-15T11:46:23.075Z,1.00
2022-10-15T11:48:58.300Z,1.50
2022-10-15T11:51:30.838Z,3.00
2022-10-15T11:54:10.304Z,3.00
2022-10-15T11:56:39.782Z,1.00
2022-10-15T11:59:17.147Z,3.00
2022-10-15T12:01:46.786Z,1.00
2022-10-15T12:04:18.737Z,3.00
2022-10-15T12:06:48.915Z,3.25
2022-10-15T12:09:18.251Z,4.00
2022-10-15T12:11:48.843Z,1.00
2022-10-15T12:14:22.885Z,2.00
2022-10-15T12:16:56.083Z,3.00
2022-10-15T12:19:26.815Z,2.00
2022-10-15T12:22:09.778Z,2.50
2022-10-15T12:24:54.141Z,1.00
2022-10-15T12:27:34.774Z,1.00
2022-10-15T12:30:26.067Z,2.00
2022-10-15T12:32:55.498Z,6.00
2022-10-15T12:35:35.364Z,2.00
2022-10-15T12:38:28.507Z,2.00
2022-10-15T12:40:58.664Z,1.00
2022-10-15T12:43:40.293Z,1.00
2022-10-15T12:46:11.023Z,3.00
2022-10-15T12:48:41.096Z,1.00
2022-10-15T12:51:39.704Z,0.00
2022-10-15T12:54:35.544Z,1.00
2022-10-15T12:57:06.628Z,1.00
2022-10-15T12:59:56.774Z,1.00
2022-10-15T13:05:26.692Z,1.00
2022-10-15T13:07:57.376Z,1.00
2022-10-15T13:10:28.865Z,1.00
2022-10-15T13:12:58.339Z,0.00
2022-10-15T13:15:34.400Z,1.00
2022-10-15T13:18:09.458Z,0.00
2022-10-15T13:20:38.407Z,1.00
2022-10-15T13:23:28.994Z,3.00
2022-10-15T13:26:15.605Z,0.00
2022-10-15T13:28:44.236Z,0.50
2022-10-15T13:31:17.273Z,1.00
2022-10-15T13:33:47.798Z,1.00
2022-10-15T13:36:20.381Z,0.75
2022-10-15T13:38:53.540Z,0.75
2022-10-15T13:41:25.706Z,0.75
2022-10-15T13:43:58.734Z,1.00
2022-10-15T13:46:27.506Z,0.75
2022-10-15T13:49:03.587Z,1.00
2022-10-15T13:51:35.990Z,0.75
2022-10-15T13:54:04.624Z,1.00
2022-10-15T13:56:33.276Z,0.00
2022-10-15T13:59:01.684Z,1.00
2022-10-15T14:01:30.329Z,0.00
2022-10-15T14:04:00.782Z,0.00
2022-10-15T14:06:29.884Z,1.00
2022-10-15T14:08:59.061Z,0.50
2022-10-15T14:11:27.445Z,0.00
2022-10-15T14:13:56.851Z,0.50
2022-10-15T14:16:28.185Z,1.50
2022-10-15T14:18:57.887Z,0.00
2022-10-15T14:21:32.019Z,2.00
2022-10-15T14:24:07.149Z,0.25
2022-10-15T14:26:35.543Z,1.00
2022-10-15T14:29:03.804Z,0.50
2022-10-15T14:31:34.465Z,1.00
2022-10-15T14:34:03.262Z,0.75
2022-10-15T14:36:33.527Z,5.50
2022-10-15T14:39:30.634Z,7.50
2022-10-15T14:42:00.107Z,3.50
2022-10-15T14:44:29.030Z,4.50
2022-10-15T14:47:01.766Z,4.00
2022-10-15T14:49:30.896Z,1.00
2022-10-15T14:52:05.987Z,9.00
2022-10-15T14:54:37.462Z,1.00
2022-10-15T14:57:06.022Z,0.50
2022-10-15T14:59:37.573Z,1.00
2022-10-15T15:02:05.916Z,3.50
2022-10-15T15:04:36.190Z,6.00
2022-10-15T15:07:08.470Z,3.00
2022-10-15T15:09:36.658Z,1.50
2022-10-15T15:12:05.179Z,1.00
2022-10-15T15:14:34.440Z,3.00
2022-10-15T15:17:02.724Z,4.00
2022-10-15T15:19:30.947Z,6.00
2022-10-15T15:21:59.331Z,2.50
2022-10-15T15:24:40.497Z,3.25
2022-10-15T15:27:08.739Z,6.00
2022-10-15T15:29:51.769Z,3.00
2022-10-15T15:32:22.990Z,2.50
2022-10-15T15:34:52.316Z,2.50
2022-10-15T15:37:21.342Z,3.00
2022-10-15T15:39:51.002Z,1.00
2022-10-15T15:42:20.355Z,3.00
2022-10-15T15:44:48.635Z,1.00
2022-10-15T15:47:17.217Z,0.00
2022-10-15T15:49:45.493Z,0.75
2022-10-15T15:52:14.279Z,0.00
2022-10-15T15:54:43.020Z,1.50
2022-10-15T15:57:12.700Z,1.00
2022-10-15T15:59:40.993Z,1.00
2022-10-15T16:02:09.432Z,1.00
2022-10-15T16:04:38.292Z,0.25
2022-10-15T16:07:09.021Z,0.00
2022-10-15T16:09:40.081Z,2.00
2022-10-15T16:12:08.315Z,1.00
2022-10-15T16:14:37.988Z,0.00
2022-10-15T16:17:06.516Z,1.00
2022-10-15T16:19:34.788Z,1.00
2022-10-15T16:22:03.038Z,0.00
2022-10-15T16:24:31.281Z,1.00
2022-10-15T16:26:59.558Z,1.00
2022-10-15T16:29:27.845Z,3.00
2022-10-15T16:31:57.609Z,3.00
2022-10-15T16:34:26.193Z,4.00
2022-10-15T16:36:54.503Z,4.00
2022-10-15T16:39:22.735Z,1.00
2022-10-15T16:41:51.032Z,3.75
2022-10-15T16:44:19.262Z,0.25
2022-10-15T16:46:47.507Z,4.00
2022-10-15T16:49:17.547Z,3.00
2022-10-15T16:51:45.921Z,3.00
2022-10-15T16:54:15.610Z,3.00
2022-10-15T16:56:45.397Z,3.00
2022-10-15T16:59:16.058Z,3.25
2022-10-15T17:01:44.385Z,4.50
2022-10-15T17:04:12.802Z,5.00
2022-10-15T17:06:42.430Z,0.00
2022-10-15T17:09:10.706Z,3.50
2022-10-15T17:11:41.813Z,2.00
2022-10-15T17:14:11.243Z,3.00
2022-10-15T17:16:40.231Z,5.50
2022-10-15T17:19:09.522Z,4.00
2022-10-15T17:21:40.379Z,6.00
2022-10-15T17:24:14.580Z,5.50
2022-10-15T17:26:43.558Z,4.00
2022-10-15T17:29:12.975Z,6.50
2022-10-15T17:31:41.560Z,3.00
2022-10-15T17:34:11.682Z,6.00
2022-10-15T17:36:44.929Z,7.00
2022-10-15T17:39:15.280Z,7.00
2022-10-15T17:41:43.509Z,3.50
2022-10-15T17:44:12.055Z,7.00
2022-10-15T17:46:40.397Z,6.00
2022-10-15T17:49:09.805Z,9.00
2022-10-15T17:51:38.098Z,7.50
2022-10-15T17:54:06.668Z,7.00
2022-10-15T17:56:36.990Z,7.00
2022-10-15T17:59:06.074Z,7.00
2022-10-15T18:04:24.314Z,6.00
2022-10-15T18:06:52.554Z,6.00
2022-10-15T18:09:20.725Z,7.00
2022-10-15T18:11:50.599Z,6.00
2022-10-15T18:16:51.958Z,6.33
2022-10-15T18:19:22.158Z,6.00
2022-10-15T18:21:50.364Z,6.00
2022-10-15T18:24:21.786Z,9.50
2022-10-15T18:26:52.306Z,7.00
2022-10-15T18:29:20.552Z,7.50
2022-10-15T18:31:52.219Z,9.50
2022-10-15T18:34:23.173Z,14.50
2022-10-15T18:36:51.375Z,8.50
2022-10-15T18:39:19.599Z,6.00
2022-10-15T18:41:47.842Z,6.00
2022-10-15T18:44:18.189Z,6.00
2022-10-15T18:46:46.816Z,6.50
2022-10-15T18:49:15.487Z,3.50
2022-10-15T18:51:45.972Z,6.75
2022-10-15T18:54:14.739Z,6.00
2022-10-15T18:56:42.902Z,4.00
2022-10-15T18:59:11.336Z,6.00
2022-10-15T19:01:42.070Z,4.00
2022-10-15T19:04:11.875Z,6.00
2022-10-15T19:06:41.114Z,3.50
2022-10-15T19:09:10.192Z,3.00
2022-10-15T19:11:38.592Z,4.50
2022-10-15T19:14:06.916Z,1.00
2022-10-15T19:16:35.465Z,7.00
2022-10-15T19:19:07.539Z,6.00
2022-10-15T19:21:37.695Z,5.50
2022-10-15T19:24:06.424Z,6.50
2022-10-15T19:26:35.316Z,5.00
2022-10-15T19:29:03.708Z,4.00
2022-10-15T19:31:33.130Z,4.00
2022-10-15T19:34:01.481Z,6.00
2022-10-15T19:36:32.362Z,6.00
2022-10-15T19:39:02.332Z,6.00
2022-10-15T19:41:30.656Z,7.00
2022-10-15T19:43:58.886Z,9.00
2022-10-15T19:46:29.388Z,6.50
2022-10-15T19:48:57.835Z,8.50
2022-10-15T19:51:26.093Z,8.00
2022-10-15T19:53:56.658Z,6.00
2022-10-15T19:56:25.739Z,3.00
2022-10-15T19:58:55.718Z,4.00
2022-10-15T20:01:24.001Z,4.00
2022-10-15T20:03:52.635Z,5.50
2022-10-15T20:06:21.057Z,9.00
2022-10-15T20:08:49.299Z,6.00
2022-10-15T20:11:19.205Z,6.50
2022-10-15T20:13:47.458Z,3.75
2022-10-15T20:16:18.470Z,8.00
2022-10-15T20:18:49.066Z,6.25
2022-10-15T20:21:17.312Z,8.00
2022-10-15T20:23:46.894Z,7.00
2022-10-15T20:26:15.761Z,7.50
2022-10-15T20:28:45.959Z,7.40
2022-10-15T20:31:16.352Z,9.00
2022-10-15T20:33:44.739Z,7.00
2022-10-15T20:36:16.397Z,6.75
2022-10-15T20:38:46.165Z,6.00
2022-10-15T20:41:15.099Z,6.25
2022-10-15T20:43:45.445Z,4.00
2022-10-15T20:46:14.576Z,7.00
2022-10-15T20:48:43.071Z,8.00
2022-10-15T20:51:11.306Z,7.25
2022-10-15T20:53:39.458Z,7.00
2022-10-15T20:56:08.784Z,6.00
2022-10-15T20:58:37.363Z,7.00
2022-10-15T21:01:07.956Z,6.00
2022-10-15T21:03:36.306Z,4.50
2022-10-15T21:06:04.575Z,6.00
2022-10-15T21:08:32.777Z,6.75
2022-10-15T21:11:04.927Z,5.00
2022-10-15T21:13:33.179Z,6.00
2022-10-15T21:16:01.933Z,3.00
2022-10-15T21:18:31.573Z,6.00
2022-10-15T21:21:02.293Z,8.50
2022-10-15T21:23:30.510Z,7.00
2022-10-15T21:26:00.485Z,6.50
2022-10-15T21:28:29.224Z,6.00
2022-10-15T21:30:57.576Z,6.00
2022-10-15T21:33:25.830Z,6.00
2022-10-15T21:35:55.911Z,3.75
2022-10-15T21:38:24.118Z,5.50
2022-10-15T21:40:53.916Z,5.50
2022-10-15T21:43:24.691Z,5.00
2022-10-15T21:45:54.269Z,3.50
2022-10-15T21:48:22.581Z,4.00
2022-10-15T21:50:50.787Z,4.00
2022-10-15T21:53:20.415Z,4.00
2022-10-15T21:55:54.043Z,6.00
2022-10-15T21:58:22.415Z,4.00
2022-10-15T22:00:50.725Z,4.00
2022-10-15T22:03:18.958Z,4.00
2022-10-15T22:05:47.737Z,3.75
2022-10-15T22:08:15.993Z,5.00
2022-10-15T22:10:46.915Z,4.00
2022-10-15T22:13:15.925Z,3.00
2022-10-15T22:15:49.851Z,3.00
2022-10-15T22:18:18.087Z,2.50
2022-10-15T22:20:46.419Z,3.00
2022-10-15T22:23:14.698Z,3.50
2022-10-15T22:25:43.292Z,3.00
2022-10-15T22:28:13.193Z,3.00
2022-10-15T22:30:41.475Z,4.00
2022-10-15T22:33:09.805Z,5.50
2022-10-15T22:35:39.381Z,3.00
2022-10-15T22:38:07.637Z,1.00
2022-10-15T22:40:35.922Z,3.00
2022-10-15T22:43:04.469Z,3.00
2022-10-15T22:45:34.352Z,3.75
2022-10-15T22:48:02.531Z,4.00
2022-10-15T22:50:30.901Z,4.50
2022-10-15T22:52:59.186Z,4.00
2022-10-15T22:55:27.638Z,2.50
2022-10-15T22:57:56.042Z,3.75
2022-10-15T23:00:24.599Z,3.00
2022-10-15T23:02:54.935Z,3.00
2022-10-15T23:05:23.193Z,0.75
2022-10-15T23:07:51.503Z,4.00
2022-10-15T23:10:19.916Z,3.00
2022-10-15T23:12:48.689Z,3.00
2022-10-15T23:15:16.997Z,3.00
2022-10-15T23:17:45.264Z,3.50
2022-10-15T23:20:15.009Z,3.25
2022-10-15T23:22:43.275Z,3.00
2022-10-15T23:25:11.553Z,1.00
2022-10-15T23:27:39.864Z,3.00
2022-10-15T23:30:14.636Z,3.00
2022-10-15T23:32:52.551Z,4.00
2022-10-15T23:35:23.555Z,3.50
2022-10-15T23:37:51.808Z,2.00
2022-10-15T23:40:20.104Z,3.00
2022-10-15T23:42:48.741Z,0.00
2022-10-15T23:45:16.973Z,3.00
2022-10-15T23:47:45.177Z,3.50
2022-10-15T23:50:13.516Z,3.25
2022-10-15T23:52:43.171Z,3.00
2022-10-15T23:55:11.365Z,3.00
2022-10-15T23:57:39.605Z,0.75
